Terminal Aerodrome Forecast
Issued by NWS

Current Version | Previous Version | Graphics & Text | Print | Product List | Glossary On
Versions: 1 2 3 4 5 6 7 8 9 10 11 12 13 14 15 16 17 18 19 20 21 22 23 24
804
FTUS41 KPBZ 111728
TAFHLG
TAF
KHLG 111728Z 1118/1218 26012G22KT P6SM -SHSN BKN025
     FM120200 28007KT P6SM SCT035
     FM120600 VRB02KT P6SM SCT250=

USA.gov is the U.S. government's official web portal to all federal, state and local government web resources and services.